Time;durP1;ratioP1;P1;durP2;ratioP2;P2;SDS_P1;SDS_P2;PMS_P1;PMS_P2;Temp;Humidity;BMP_temperature;BMP_pressure;BME280_temperature;BME280_humidity;BME280_pressure;Samples;Min_cycle;Max_cycle;Signal;HPM_P1;HPM_P2
2022/10/26 00:00:50;;;;;;;13.48;8.55;;;;;;;9.97;100.00;101194.47;5051682;28;20444;-51
2022/10/26 00:03:16;;;;;;;10.63;8.40;;;;;;;9.71;100.00;101131.13;5066981;28;20116;-51
2022/10/26 00:05:41;;;;;;;12.13;8.93;;;;;;;9.70;100.00;101117.13;5051642;28;20403;-51
2022/10/26 00:08:07;;;;;;;10.05;8.48;;;;;;;10.08;100.00;101171.38;5051454;28;20028;-55
2022/10/26 00:10:34;;;;;;;13.25;8.63;;;;;;;10.06;100.00;101173.22;5066902;28;20118;-49
2022/10/26 00:13:00;;;;;;;14.93;9.32;;;;;;;9.69;100.00;101111.91;5051449;28;20040;-54
2022/10/26 00:15:26;;;;;;;12.27;8.68;;;;;;;10.13;100.00;101169.53;5066820;28;20115;-53
2022/10/26 00:17:52;;;;;;;15.48;8.40;;;;;;;10.13;100.00;101169.53;5050500;28;20119;-48
2022/10/26 00:20:17;;;;;;;10.80;8.48;;;;;;;10.13;100.00;101169.53;5051158;28;20047;-50
2022/10/26 00:22:42;;;;;;;13.73;8.40;;;;;;;10.02;100.00;101138.22;5051621;28;20102;-49
2022/10/26 00:25:08;;;;;;;14.00;8.45;;;;;;;9.91;100.00;101113.97;5051742;28;20052;-52
2022/10/26 00:27:33;;;;;;;12.48;7.65;;;;;;;10.13;100.00;101144.09;5054814;28;20033;-54
2022/10/26 00:30:00;;;;;;;13.68;7.63;;;;;;;9.77;100.00;101100.31;5054543;28;20079;-49
2022/10/26 00:32:25;;;;;;;10.95;7.97;;;;;;;10.11;100.00;101145.88;5053796;28;20032;-51
2022/10/26 00:34:50;;;;;;;11.00;8.07;;;;;;;10.10;100.00;101145.91;5054813;28;20103;-52
2022/10/26 00:37:16;;;;;;;11.73;8.57;;;;;;;9.74;100.00;101081.13;5055038;28;20033;-52
2022/10/26 00:39:41;;;;;;;9.77;7.43;;;;;;;10.12;100.00;101149.38;5053215;28;20037;-55
2022/10/26 00:42:11;;;;;;;12.73;7.75;;;;;;;9.79;100.00;101089.75;5070133;28;20480;-50
2022/10/26 00:44:45;;;;;;;13.18;8.20;;;;;;;10.17;100.00;101137.00;5054299;28;20033;-52
2022/10/26 00:47:39;;;;;;;10.27;7.68;;;;;;;10.22;100.00;101142.13;5053295;28;20037;-49
2022/10/26 00:50:09;;;;;;;10.82;7.97;;;;;;;10.24;100.00;101143.84;5053390;28;20048;-51
2022/10/26 00:52:36;;;;;;;10.63;8.35;;;;;;;10.27;100.00;101141.13;5069345;28;20032;-55
2022/10/26 00:55:01;;;;;;;12.07;7.50;;;;;;;10.35;100.00;101136.53;5069784;28;20041;-50
2022/10/26 00:57:26;;;;;;;8.30;7.32;;;;;;;10.07;100.00;101088.13;5054210;28;20093;-54
2022/10/26 00:59:53;;;;;;;10.68;7.25;;;;;;;10.39;100.00;101150.47;5054558;28;20033;-52
2022/10/26 01:02:18;;;;;;;9.93;7.88;;;;;;;10.40;100.00;101145.16;5053334;28;20041;-53
2022/10/26 01:04:45;;;;;;;11.48;7.47;;;;;;;10.33;100.00;101125.19;5054192;28;20060;-52
2022/10/26 01:07:11;;;;;;;13.93;7.88;;;;;;;10.43;100.00;101139.81;5054111;28;20123;-53
2022/10/26 01:09:36;;;;;;;11.93;6.95;;;;;;;10.49;100.00;101138.78;5052703;28;20504;-50
2022/10/26 01:12:01;;;;;;;13.93;8.65;;;;;;;9.83;100.00;101017.78;5069756;28;20037;-49
2022/10/26 01:14:27;;;;;;;10.63;7.25;;;;;;;10.48;100.00;101126.50;5054273;28;20230;-47
2022/10/26 01:17:13;;;;;;;16.00;7.40;;;;;;;10.50;100.00;101125.59;5036113;28;20025;-51
2022/10/26 01:20:03;;;;;;;10.27;6.55;;;;;;;10.54;100.00;101121.06;5069397;28;20048;-50
2022/10/26 01:22:43;;;;;;;13.63;7.60;;;;;;;10.53;100.00;101109.72;5054352;28;20061;-53
2022/10/26 01:25:24;;;;;;;9.82;6.45;;;;;;;10.20;100.00;101052.75;5069359;28;20039;-50
2022/10/26 01:27:51;;;;;;;8.95;6.80;;;;;;;10.58;100.00;101102.53;5053798;28;20434;-50
2022/10/26 01:30:35;;;;;;;10.85;6.25;;;;;;;10.58;100.00;101105.16;5052737;28;20033;-55
2022/10/26 01:33:43;;;;;;;11.13;6.72;;;;;;;10.49;100.00;101094.03;5069474;28;20135;-47
2022/10/26 01:36:26;;;;;;;12.38;7.07;;;;;;;10.55;100.00;101091.22;5053366;28;20052;-53
2022/10/26 01:39:02;;;;;;;10.48;7.07;;;;;;;10.50;100.00;101093.13;5052823;28;20119;-49
2022/10/26 01:41:30;;;;;;;10.52;6.65;;;;;;;10.00;100.00;101002.41;5069259;28;20033;-51
2022/10/26 01:43:59;;;;;;;8.93;7.13;;;;;;;10.10;100.00;101020.53;5068948;28;20078;-49
2022/10/26 01:46:26;;;;;;;12.07;7.25;;;;;;;10.07;100.00;101028.50;5052184;28;20029;-49
2022/10/26 01:48:54;;;;;;;13.18;7.22;;;;;;;10.46;100.00;101096.75;5053447;28;20051;-54
2022/10/26 01:51:21;;;;;;;9.75;7.18;;;;;;;10.21;100.00;101048.34;5052019;28;20123;-52
2022/10/26 01:53:46;;;;;;;7.90;6.60;;;;;;;10.44;100.00;101077.50;5052320;28;20141;-53
2022/10/26 01:56:22;;;;;;;12.88;7.75;;;;;;;10.21;100.00;101022.03;5053570;28;20116;-49
2022/10/26 01:59:02;;;;;;;9.52;7.03;;;;;;;10.56;100.00;101078.03;5053491;28;20033;-50
2022/10/26 02:01:50;;;;;;;11.35;7.53;;;;;;;10.51;100.00;101056.22;5068794;28;20131;-53
2022/10/26 02:04:43;;;;;;;13.00;7.68;;;;;;;10.68;100.00;101071.56;5053457;28;20548;-52
2022/10/26 02:07:25;;;;;;;11.45;6.60;;;;;;;10.64;100.00;101047.09;5068533;28;20533;-53
2022/10/26 02:09:59;;;;;;;10.02;6.78;;;;;;;10.37;100.00;100997.88;5051915;28;20033;-54
2022/10/26 02:12:40;;;;;;;12.60;7.38;;;;;;;10.39;100.00;101000.47;5068394;28;20388;-52
2022/10/26 02:15:20;;;;;;;12.45;7.82;;;;;;;10.42;100.00;101005.66;5053254;28;20037;-51
2022/10/26 02:17:52;;;;;;;13.23;8.02;;;;;;;10.54;100.00;101021.94;5068661;28;20051;-49
2022/10/26 02:20:23;;;;;;;9.32;6.78;;;;;;;10.43;100.00;101005.59;5052441;28;20478;-49
2022/10/26 02:22:50;;;;;;;9.40;7.13;;;;;;;10.81;100.00;101065.00;5051968;28;20423;-52
2022/10/26 02:25:22;;;;;;;13.70;7.32;;;;;;;10.81;100.00;101080.81;5052799;28;20392;-48
2022/10/26 02:27:51;;;;;;;11.90;7.80;;;;;;;10.79;100.00;101073.88;5052851;28;20536;-51
2022/10/26 02:30:17;;;;;;;10.30;7.40;;;;;;;10.36;100.00;101008.47;5051731;28;20544;-50
2022/10/26 02:32:47;;;;;;;9.30;7.57;;;;;;;10.44;100.00;101024.88;5068313;28;20060;-50
2022/10/26 02:35:14;;;;;;;9.90;7.80;;;;;;;10.61;100.00;101078.75;5067771;28;20500;-49
2022/10/26 02:37:40;;;;;;;13.95;8.35;;;;;;;10.24;100.00;101012.31;5051479;28;20025;-50
2022/10/26 02:40:09;;;;;;;12.32;8.25;;;;;;;10.39;100.00;101043.41;5051625;28;20083;-50
2022/10/26 02:42:36;;;;;;;12.43;8.65;;;;;;;10.23;100.00;101033.38;5052457;28;20439;-50
2022/10/26 02:45:06;;;;;;;14.25;8.77;;;;;;;10.34;100.00;101060.25;5067484;28;20062;-50
2022/10/26 02:47:31;;;;;;;13.15;8.98;;;;;;;10.30;100.00;101051.59;5051002;28;20037;-51
2022/10/26 02:49:57;;;;;;;11.23;8.32;;;;;;;10.31;100.00;101060.31;5052230;28;20039;-53
2022/10/26 02:52:59;;;;;;;10.35;8.57;;;;;;;10.32;100.00;101064.69;5052323;28;20037;-51
2022/10/26 02:55:29;;;;;;;12.20;8.38;;;;;;;10.33;100.00;101055.91;5028707;28;20095;-49
2022/10/26 02:57:58;;;;;;;13.05;8.85;;;;;;;10.12;100.00;101024.00;5067804;28;20559;-50
2022/10/26 03:00:23;;;;;;;10.02;8.75;;;;;;;10.33;100.00;101040.13;5068201;28;20029;-51
2022/10/26 03:02:56;;;;;;;11.82;8.88;;;;;;;10.41;100.00;101052.16;5052242;28;20047;-48
2022/10/26 03:05:31;;;;;;;13.80;9.65;;;;;;;10.45;100.00;101055.56;5051187;28;20501;-48
2022/10/26 03:07:57;;;;;;;14.70;8.98;;;;;;;10.08;100.00;100989.91;5052287;28;20033;-48
2022/10/26 03:10:22;;;;;;;16.65;9.48;;;;;;;10.44;100.00;101044.16;5051947;28;20036;-50
2022/10/26 03:12:47;;;;;;;13.48;9.20;;;;;;;10.04;100.00;100980.41;5052057;28;20069;-52
2022/10/26 03:15:13;;;;;;;14.98;9.25;;;;;;;10.40;100.00;101041.66;5067561;28;20032;-50
2022/10/26 03:17:38;;;;;;;15.13;9.80;;;;;;;10.37;100.00;101050.50;5052076;28;20033;-56
2022/10/26 03:20:04;;;;;;;13.65;9.18;;;;;;;10.02;100.00;100985.69;5052269;28;20029;-50
2022/10/26 03:22:29;;;;;;;12.60;9.65;;;;;;;10.10;100.00;101003.88;5050788;28;20029;-51
2022/10/26 03:24:54;;;;;;;16.83;9.30;;;;;;;10.34;100.00;101034.78;5051889;28;20033;-50
2022/10/26 03:27:20;;;;;;;19.00;9.77;;;;;;;10.35;100.00;101030.41;5052163;28;20037;-51
2022/10/26 03:29:45;;;;;;;14.25;10.00;;;;;;;10.36;100.00;101026.88;5067448;28;20025;-54
2022/10/26 03:32:11;;;;;;;16.48;10.65;;;;;;;10.34;100.00;101019.00;5051941;28;20438;-54
2022/10/26 03:34:36;;;;;;;12.63;9.85;;;;;;;10.42;100.00;101038.06;5051727;28;20060;-49
2022/10/26 03:37:01;;;;;;;15.98;9.35;;;;;;;10.43;100.00;101028.41;5051911;28;20132;-48
2022/10/26 03:39:28;;;;;;;16.45;9.40;;;;;;;10.36;100.00;101014.56;5051960;28;20251;-49
2022/10/26 03:41:54;;;;;;;10.85;9.15;;;;;;;10.45;100.00;101034.50;5051601;28;20496;-51
2022/10/26 03:44:19;;;;;;;16.58;10.05;;;;;;;10.11;100.00;100971.41;5052226;28;20037;-49
2022/10/26 03:46:45;;;;;;;15.00;9.70;;;;;;;10.43;100.00;101024.00;5051969;28;20479;-51
2022/10/26 03:49:10;;;;;;;11.00;9.73;;;;;;;10.29;100.00;100999.88;5051791;28;20048;-47
2022/10/26 03:51:35;;;;;;;14.27;9.15;;;;;;;10.16;100.00;100980.94;5051864;28;20373;-51
2022/10/26 03:54:00;;;;;;;13.00;9.55;;;;;;;10.34;100.00;101013.75;5066899;28;20037;-52
2022/10/26 03:56:26;;;;;;;12.85;9.50;;;;;;;10.42;100.00;101022.28;5051701;28;20037;-52
2022/10/26 03:58:51;;;;;;;14.65;9.48;;;;;;;10.44;100.00;101027.50;5051924;28;20070;-54
2022/10/26 04:01:16;;;;;;;13.68;10.20;;;;;;;10.16;100.00;100975.66;5054050;28;20120;-53
2022/10/26 04:03:42;;;;;;;12.32;9.43;;;;;;;10.46;100.00;101017.78;5055660;28;20120;-51
2022/10/26 04:06:07;;;;;;;15.35;8.38;;;;;;;10.50;100.00;101025.56;5055442;28;20504;-53
2022/10/26 04:08:32;;;;;;;12.10;8.75;;;;;;;10.45;100.00;101011.66;5070931;28;20033;-49
2022/10/26 04:10:57;;;;;;;10.60;8.27;;;;;;;10.60;100.00;101026.16;5070658;28;20037;-49
2022/10/26 04:13:23;;;;;;;13.10;8.15;;;;;;;10.16;100.00;100948.50;5055561;28;20028;-50
2022/10/26 04:15:48;;;;;;;15.13;8.75;;;;;;;10.30;100.00;100967.41;5054248;28;20434;-49
2022/10/26 04:18:14;;;;;;;14.20;9.00;;;;;;;10.44;100.00;100983.66;5055010;28;20114;-52
2022/10/26 04:20:42;;;;;;;14.70;8.77;;;;;;;10.67;100.00;101020.66;5054615;28;20041;-49
2022/10/26 04:23:11;;;;;;;12.80;8.95;;;;;;;10.65;100.00;101019.00;5037859;28;20055;-53
2022/10/26 04:25:36;;;;;;;14.13;8.57;;;;;;;10.69;100.00;101032.00;5053848;28;20033;-51
2022/10/26 04:28:03;;;;;;;13.43;8.73;;;;;;;10.71;100.00;101024.91;5055213;28;20035;-51
2022/10/26 04:30:29;;;;;;;9.77;7.53;;;;;;;10.76;100.00;101032.69;5053708;28;20037;-51
2022/10/26 04:32:55;;;;;;;10.13;7.00;;;;;;;10.78;100.00;101017.69;5055100;28;20045;-51
2022/10/26 04:35:20;;;;;;;10.25;8.23;;;;;;;10.83;100.00;101026.31;5055040;28;20136;-52
2022/10/26 04:37:46;;;;;;;8.80;7.88;;;;;;;10.83;100.00;101022.84;5054764;28;20084;-47
2022/10/26 04:40:11;;;;;;;12.60;7.82;;;;;;;10.51;100.00;100969.38;5054821;28;20032;-52
2022/10/26 04:42:41;;;;;;;11.32;8.00;;;;;;;10.88;100.00;101027.06;5054955;28;20060;-51
2022/10/26 04:45:07;;;;;;;12.32;8.10;;;;;;;10.83;100.00;101004.41;5053485;28;20036;-50
2022/10/26 04:47:32;;;;;;;10.98;7.75;;;;;;;10.90;100.00;101014.69;5070111;28;20125;-49
2022/10/26 04:49:58;;;;;;;12.88;8.57;;;;;;;10.92;100.00;101026.03;5054537;28;20116;-51
2022/10/26 04:52:23;;;;;;;11.30;7.82;;;;;;;10.93;100.00;101016.38;5054556;28;20064;-47
2022/10/26 04:54:48;;;;;;;13.00;7.50;;;;;;;10.89;100.00;101012.09;5054599;28;20102;-52
2022/10/26 04:57:14;;;;;;;12.65;7.53;;;;;;;10.62;100.00;100956.75;5054958;28;20434;-52
2022/10/26 04:59:39;;;;;;;10.75;7.18;;;;;;;11.00;100.00;101010.03;5054698;28;20054;-54
2022/10/26 05:02:04;;;;;;;12.45;7.80;;;;;;;10.68;100.00;100953.94;5054674;28;20048;-55
2022/10/26 05:04:30;;;;;;;13.85;7.13;;;;;;;11.02;100.00;101016.97;5070281;28;20395;-55
2022/10/26 05:06:55;;;;;;;11.38;7.35;;;;;;;10.98;100.00;101012.69;5054776;28;20040;-52
2022/10/26 05:09:21;;;;;;;13.77;8.02;;;;;;;11.08;100.00;101016.78;5071033;28;20079;-52
2022/10/26 05:11:51;;;;;;;9.93;6.75;;;;;;;11.08;100.00;101010.63;5072432;28;20534;-55
2022/10/26 05:14:16;;;;;;;12.50;7.03;;;;;;;11.09;100.00;101012.38;5054576;28;20083;-52
2022/10/26 05:16:43;;;;;;;9.55;7.15;;;;;;;11.10;100.00;101008.81;5054243;28;20028;-50
2022/10/26 05:19:09;;;;;;;8.68;6.95;;;;;;;11.12;100.00;101002.56;5054724;28;20037;-56
2022/10/26 05:21:35;;;;;;;11.20;6.75;;;;;;;11.16;100.00;101005.97;5069643;28;20428;-52
2022/10/26 05:24:04;;;;;;;9.60;6.85;;;;;;;11.16;100.00;101011.25;5054481;28;20044;-52
2022/10/26 05:26:30;;;;;;;11.00;7.03;;;;;;;11.19;100.00;101011.16;5054538;28;20116;-54
2022/10/26 05:28:55;;;;;;;10.35;7.00;;;;;;;11.18;100.00;101012.03;5069421;28;20071;-52
2022/10/26 05:31:22;;;;;;;12.10;6.93;;;;;;;11.22;100.00;101013.69;5054139;28;20055;-53
2022/10/26 05:33:49;;;;;;;13.93;7.47;;;;;;;11.20;100.00;101007.63;5052490;28;20029;-47
2022/10/26 05:36:16;;;;;;;8.23;7.20;;;;;;;11.23;100.00;101008.38;5068391;28;20041;-52
2022/10/26 05:38:41;;;;;;;11.43;7.13;;;;;;;11.19;100.00;101019.06;5053637;28;20081;-49
2022/10/26 05:41:07;;;;;;;13.23;7.93;;;;;;;10.91;100.00;100953.22;5069389;28;20052;-48
2022/10/26 05:43:32;;;;;;;17.67;7.53;;;;;;;10.94;100.00;100961.03;5053924;28;20388;-49
2022/10/26 05:45:58;;;;;;;11.63;7.45;;;;;;;11.25;100.00;101009.19;5054027;28;20033;-53
2022/10/26 05:48:23;;;;;;;11.90;7.22;;;;;;;10.87;100.00;100946.31;5053680;28;20044;-49
2022/10/26 05:50:49;;;;;;;12.05;7.60;;;;;;;10.93;100.00;100959.31;5053458;28;20446;-52
2022/10/26 05:53:14;;;;;;;10.77;7.60;;;;;;;11.04;100.00;100982.66;5053208;28;20035;-49
2022/10/26 05:55:40;;;;;;;11.68;7.38;;;;;;;10.99;100.00;100979.31;5053436;28;20490;-51
2022/10/26 05:58:13;;;;;;;10.85;7.97;;;;;;;10.79;100.00;100950.13;5054058;28;20040;-51
2022/10/26 06:01:06;;;;;;;11.60;7.55;;;;;;;11.11;100.00;101003.50;5053457;28;20029;-46
2022/10/26 06:03:40;;;;;;;7.60;6.75;;;;;;;11.11;100.00;101000.88;5053007;28;20056;-51
2022/10/26 06:06:06;;;;;;;11.23;7.22;;;;;;;11.10;100.00;101014.94;5053118;28;20025;-50
2022/10/26 06:08:31;;;;;;;10.40;7.30;;;;;;;11.08;100.00;101002.72;5068741;28;20036;-51
2022/10/26 06:11:01;;;;;;;11.25;7.75;;;;;;;11.05;100.00;101006.31;5053509;28;20546;-52
2022/10/26 06:13:27;;;;;;;12.30;7.47;;;;;;;10.96;100.00;101005.75;5051981;28;20028;-52
2022/10/26 06:16:14;;;;;;;10.93;7.78;;;;;;;11.06;100.00;101023.00;5053011;28;20395;-53
2022/10/26 06:19:16;;;;;;;14.15;7.90;;;;;;;11.03;100.00;101015.19;5053251;28;20032;-48
2022/10/26 06:21:48;;;;;;;12.93;7.97;;;;;;;10.97;100.00;101023.28;5052691;28;20516;-48
2022/10/26 06:24:35;;;;;;;11.48;7.50;;;;;;;10.94;100.00;101012.84;5067735;28;20029;-49
2022/10/26 06:27:29;;;;;;;11.63;7.63;;;;;;;10.92;100.00;101019.91;5051807;28;20498;-48
2022/10/26 06:30:05;;;;;;;15.27;8.20;;;;;;;10.62;100.00;100971.69;5052757;28;20036;-53
2022/10/26 06:32:31;;;;;;;11.60;7.43;;;;;;;10.50;100.00;100953.66;5052803;28;20031;-48
2022/10/26 06:35:12;;;;;;;15.48;8.27;;;;;;;10.78;100.00;101011.56;5051181;28;20408;-54
2022/10/26 06:37:37;;;;;;;13.43;8.30;;;;;;;10.85;100.00;101013.13;5068298;28;20035;-52
2022/10/26 06:40:03;;;;;;;13.48;8.15;;;;;;;10.84;100.00;101006.13;5068200;28;20037;-50
2022/10/26 06:42:30;;;;;;;13.05;8.48;;;;;;;10.87;100.00;101016.56;5052513;28;20498;-50
2022/10/26 06:44:56;;;;;;;10.80;8.32;;;;;;;10.85;100.00;101016.63;5052257;28;20552;-53
2022/10/26 06:47:25;;;;;;;11.57;7.90;;;;;;;10.89;100.00;101033.16;5052261;28;20028;-52
2022/10/26 06:50:20;;;;;;;11.73;7.75;;;;;;;10.92;100.00;101039.22;5052399;28;20033;-49
2022/10/26 06:52:52;;;;;;;12.38;7.82;;;;;;;10.56;100.00;100979.78;5026099;28;20032;-48
2022/10/26 06:55:18;;;;;;;11.18;8.40;;;;;;;10.76;100.00;101005.50;5052464;28;20055;-52
2022/10/26 06:57:44;;;;;;;13.38;7.75;;;;;;;10.92;100.00;101031.31;5051954;28;20487;-52
2022/10/26 07:00:19;;;;;;;14.15;8.45;;;;;;;10.94;100.00;101044.44;5068077;28;20543;-48
2022/10/26 07:02:44;;;;;;;14.10;8.55;;;;;;;10.93;100.00;101040.94;5051328;28;20041;-52
2022/10/26 07:05:11;;;;;;;13.57;7.97;;;;;;;10.62;100.00;100977.81;5052269;28;20029;-52
2022/10/26 07:07:41;;;;;;;14.13;8.55;;;;;;;10.71;100.00;100985.44;5052209;28;20032;-48
2022/10/26 07:10:06;;;;;;;11.65;7.97;;;;;;;10.40;100.00;100945.16;5067567;28;20071;-53
2022/10/26 07:12:31;;;;;;;12.63;7.53;;;;;;;11.00;100.00;101039.00;5052317;28;20119;-50
2022/10/26 07:14:57;;;;;;;12.35;8.07;;;;;;;11.01;100.00;101045.97;5052099;28;20037;-55
2022/10/26 07:17:23;;;;;;;15.20;8.82;;;;;;;11.02;100.00;101059.09;5052286;28;20040;-47
2022/10/26 07:19:48;;;;;;;10.80;8.15;;;;;;;11.01;100.00;101048.59;5052083;28;20036;-52
2022/10/26 07:22:13;;;;;;;14.45;8.80;;;;;;;11.01;100.00;101048.59;5052139;28;20040;-53
2022/10/26 07:24:39;;;;;;;16.27;8.65;;;;;;;11.15;100.00;101056.94;5067045;28;20029;-54
2022/10/26 07:27:04;;;;;;;11.90;8.52;;;;;;;10.86;100.00;101005.16;5067718;28;20044;-51
2022/10/26 07:29:29;;;;;;;10.68;7.97;;;;;;;11.15;100.00;101049.91;5052043;28;20091;-46
2022/10/26 07:31:55;;;;;;;12.77;7.72;;;;;;;10.94;100.00;101004.94;5052314;28;20116;-52
2022/10/26 07:34:20;;;;;;;13.25;7.85;;;;;;;11.32;100.00;101060.75;5067885;28;20056;-50
2022/10/26 07:36:45;;;;;;;8.27;7.47;;;;;;;11.40;100.00;101078.13;5054541;28;20108;-47
2022/10/26 07:39:10;;;;;;;10.48;7.13;;;;;;;11.43;100.00;101088.56;5053738;28;20043;-51
2022/10/26 07:41:36;;;;;;;10.60;6.78;;;;;;;11.52;100.00;101096.19;5050261;28;20065;-49
2022/10/26 07:44:01;;;;;;;9.65;6.93;;;;;;;11.60;100.00;101092.38;5055203;28;20068;-51
2022/10/26 07:46:27;;;;;;;8.30;6.53;;;;;;;11.74;100.00;101086.69;5055502;28;20116;-51
2022/10/26 07:48:53;;;;;;;9.38;7.10;;;;;;;11.54;100.00;101033.72;5055345;28;20377;-51
2022/10/26 07:51:18;;;;;;;11.60;6.65;;;;;;;11.97;100.00;101097.31;5054415;28;20131;-52
2022/10/26 07:53:45;;;;;;;9.18;5.95;;;;;;;12.06;100.00;101111.97;5055339;28;20072;-51
2022/10/26 07:56:10;;;;;;;8.35;5.40;;;;;;;11.81;100.00;101048.66;5055818;28;20089;-51
2022/10/26 07:58:36;;;;;;;7.70;5.38;;;;;;;12.25;100.00;101118.38;5055891;28;20029;-50
2022/10/26 08:01:09;;;;;;;8.63;4.93;;;;;;;12.36;100.00;101111.78;5054497;28;20446;-50
2022/10/26 08:03:34;;;;;;;8.65;5.38;;;;;;;12.16;100.00;101050.06;5055587;28;20029;-55
2022/10/26 08:06:00;;;;;;;8.13;4.93;;;;;;;12.26;100.00;101040.88;5055337;28;20029;-54
2022/10/26 08:08:25;;;;;;;7.70;4.38;;;;;;;12.40;100.00;101039.47;5053711;28;20032;-52
2022/10/26 08:10:51;;;;;;;8.23;5.05;;;;;;;12.91;100.00;101092.13;5053837;28;20499;-49
2022/10/26 08:13:16;;;;;;;10.60;4.72;;;;;;;13.10;100.00;101086.19;5055354;28;20396;-51
2022/10/26 08:15:42;;;;;;;5.72;3.80;;;;;;;13.29;100.00;101080.13;5053929;28;20037;-50
2022/10/26 08:18:07;;;;;;;6.78;4.07;;;;;;;13.19;100.00;101040.91;5055313;28;20102;-53
2022/10/26 08:20:32;;;;;;;6.00;3.97;;;;;;;13.61;100.00;101081.47;5055413;28;20047;-49
2022/10/26 08:22:58;;;;;;;4.45;3.35;;;;;;;13.66;100.00;101087.41;5055145;28;20128;-50
2022/10/26 08:25:24;;;;;;;8.48;3.22;;;;;;;13.66;100.00;101055.66;5055538;28;20480;-51
2022/10/26 08:27:50;;;;;;;7.05;3.47;;;;;;;13.97;100.00;101082.59;5053797;28;20037;-51
2022/10/26 08:30:15;;;;;;;5.55;2.70;;;;;;;14.09;100.00;101091.78;5055216;28;20033;-47
2022/10/26 08:32:41;;;;;;;8.60;3.15;;;;;;;14.20;100.00;101102.78;5055056;28;20087;-51
2022/10/26 08:35:07;;;;;;;5.05;2.50;;;;;;;14.04;100.00;101046.97;5054762;28;20564;-52
2022/10/26 08:37:32;;;;;;;8.63;3.42;;;;;;;14.18;100.00;101049.03;5054844;28;20472;-55
2022/10/26 08:39:58;;;;;;;7.10;2.60;;;;;;;14.28;100.00;101045.03;5053854;28;20044;-52
2022/10/26 08:42:28;;;;;;;4.45;2.70;;;;;;;14.83;100.00;101120.28;5055091;28;20029;-49
2022/10/26 08:44:58;;;;;;;5.78;2.90;;;;;;;14.07;100.00;100985.09;5054088;28;20040;-49
2022/10/26 08:47:36;;;;;;;4.20;3.05;;;;;;;15.08;100.00;101139.47;5052910;28;20051;-52
2022/10/26 08:50:08;;;;;;;6.05;2.40;;;;;;;15.00;100.00;101100.97;5053483;28;20399;-50
2022/10/26 08:52:43;;;;;;;5.82;2.55;;;;;;;15.49;100.00;101141.97;5054679;28;20025;-51
2022/10/26 08:55:14;;;;;;;8.48;2.65;;;;;;;15.36;100.00;101103.66;5053380;28;20039;-46
2022/10/26 08:57:40;;;;;;;;;;;;;;;15.72;100.00;101149.69;5053915;28;20108;-50
2022/10/26 09:00:22;;;;;;;7.47;2.50;;;;;;;15.49;100.00;101092.44;5054717;28;19943;-50
2022/10/26 09:02:52;;;;;;;7.32;2.80;;;;;;;15.86;100.00;101146.34;5053310;28;20190;-49
2022/10/26 09:05:45;;;;;;;6.28;2.67;;;;;;;15.59;100.00;101096.34;5053233;28;20057;-51
2022/10/26 09:08:16;;;;;;;5.05;2.92;;;;;;;15.99;100.00;101161.63;5053029;28;20036;-49
2022/10/26 09:11:20;;;;;;;5.80;2.90;;;;;;;16.12;100.00;101169.81;5054268;28;20037;-52
2022/10/26 09:14:06;;;;;;;6.65;2.55;;;;;;;16.20;100.00;101179.13;5046007;28;20041;-49
2022/10/26 09:16:50;;;;;;;3.90;2.45;;;;;;;16.31;100.00;101192.72;5053187;28;20049;-50
2022/10/26 09:19:34;;;;;;;4.22;2.58;;;;;;;16.43;100.00;101180.63;5053990;28;20036;-50
2022/10/26 09:22:19;;;;;;;8.63;3.08;;;;;;;16.17;100.00;101138.59;5054267;28;20040;-47
2022/10/26 09:25:18;;;;;;;7.13;2.90;;;;;;;16.49;100.00;101190.09;5052887;28;20033;-48
2022/10/26 09:27:47;;;;;;;4.50;2.40;;;;;;;16.49;100.00;101180.28;5053760;28;20025;-48
2022/10/26 09:30:14;;;;;;;8.95;3.05;;;;;;;16.55;100.00;101185.34;5054214;28;20033;-49
2022/10/26 09:32:48;;;;;;;7.03;2.70;;;;;;;16.44;100.00;101128.34;5054026;28;20427;-50
2022/10/26 09:35:18;;;;;;;5.15;2.58;;;;;;;16.78;100.00;101173.53;5052625;28;20087;-54
2022/10/26 09:37:50;;;;;;;3.47;2.30;;;;;;;16.63;100.00;101131.81;5052704;28;20115;-52
2022/10/26 09:40:33;;;;;;;6.22;2.50;;;;;;;16.88;100.00;101145.50;5052596;28;20037;-49
2022/10/26 09:43:10;;;;;;;3.80;2.53;;;;;;;17.12;100.00;101191.19;5053836;28;20063;-47
2022/10/26 09:45:38;;;;;;;8.10;2.33;;;;;;;17.31;100.00;101219.38;5052241;28;20476;-49
2022/10/26 09:48:10;;;;;;;5.85;2.20;;;;;;;17.09;100.00;101170.94;5035842;28;20029;-48
2022/10/26 09:50:38;;;;;;;5.97;2.15;;;;;;;17.13;100.00;101171.66;5052140;28;20048;-49
2022/10/26 09:53:04;;;;;;;8.07;2.33;;;;;;;17.23;100.00;101176.38;5052407;28;20108;-50
2022/10/26 09:55:30;;;;;;;6.28;2.55;;;;;;;17.24;100.00;101179.91;5052428;28;20140;-49
2022/10/26 09:58:00;;;;;;;8.02;2.42;;;;;;;17.15;100.00;101186.56;5051167;28;20392;-49
2022/10/26 10:00:27;;;;;;;5.30;2.40;;;;;;;17.41;100.00;101223.28;5052126;28;20033;-48
2022/10/26 10:02:54;;;;;;;4.28;2.55;;;;;;;17.20;100.00;101191.63;5052032;28;20422;-49
2022/10/26 10:05:27;;;;;;;6.40;2.63;;;;;;;17.61;100.00;101261.25;5051879;28;20472;-49
2022/10/26 10:08:17;;;;;;;5.35;2.58;;;;;;;17.67;100.00;101253.81;5053235;28;20033;-53
2022/10/26 10:10:54;;;;;;;5.77;2.70;;;;;;;17.43;100.00;101216.06;5053174;28;20025;-50
2022/10/26 10:13:20;;;;;;;6.60;2.80;;;;;;;17.67;100.00;101239.63;5051203;28;20021;-50
2022/10/26 10:16:00;;;;;;;3.72;2.35;;;;;;;17.81;100.00;101277.88;5053230;28;20425;-46
2022/10/26 10:18:26;;;;;;;8.38;2.95;;;;;;;17.68;100.00;101276.84;5053057;28;20025;-46
2022/10/26 10:20:53;;;;;;;5.20;2.42;;;;;;;17.67;100.00;101280.44;5051571;28;20041;-50
2022/10/26 10:23:28;;;;;;;9.05;3.05;;;;;;;17.42;100.00;101278.19;5050592;28;20032;-50
2022/10/26 10:26:11;;;;;;;9.07;2.70;;;;;;;17.45;100.00;101290.50;5052459;28;20029;-49
2022/10/26 10:28:39;;;;;;;7.90;2.70;;;;;;;16.81;100.00;101194.63;5051321;28;20105;-48
2022/10/26 10:31:17;;;;;;;6.47;2.38;;;;;;;17.40;100.00;101292.53;5051424;28;20029;-51
2022/10/26 10:33:44;;;;;;;8.13;2.53;;;;;;;17.41;100.00;101289.81;5051159;28;20048;-49
2022/10/26 10:36:13;;;;;;;6.43;2.95;;;;;;;17.48;100.00;101295.66;5049535;28;20403;-48
2022/10/26 10:38:41;;;;;;;6.07;2.20;;;;;;;17.15;100.00;101225.59;5050962;28;20033;-51
2022/10/26 10:41:15;;;;;;;8.80;2.58;;;;;;;17.62;100.00;101313.56;5052889;28;20029;-48
2022/10/26 10:43:46;;;;;;;3.40;2.22;;;;;;;17.41;100.00;101241.03;5052855;28;20029;-47
2022/10/26 10:46:17;;;;;;;7.85;3.00;;;;;;;17.65;100.00;101253.03;5052518;28;20503;-51
2022/10/26 10:48:47;;;;;;;5.00;2.55;;;;;;;17.66;100.00;101251.25;5052202;28;20037;-49
2022/10/26 10:51:21;;;;;;;4.53;2.47;;;;;;;17.87;100.00;101261.56;5053666;28;20033;-52
2022/10/26 10:53:51;;;;;;;3.90;1.88;;;;;;;18.28;100.00;101319.63;5054377;28;20041;-48
2022/10/26 10:56:33;;;;;;;6.03;2.50;;;;;;;18.35;100.00;101294.38;5057343;28;20166;-48
2022/10/26 10:59:29;;;;;;;7.45;2.42;;;;;;;18.06;100.00;101253.41;5052758;28;20122;-53
2022/10/26 11:02:01;;;;;;;4.72;2.40;;;;;;;18.42;100.00;101317.91;5034702;28;20116;-47
2022/10/26 11:04:41;;;;;;;4.82;2.45;;;;;;;18.39;100.00;101326.06;5052446;28;20090;-53
2022/10/26 11:07:08;;;;;;;12.20;5.22;;;;;;;18.35;100.00;101332.53;5052217;28;20443;-47
2022/10/26 11:09:36;;;;;;;6.60;2.83;;;;;;;18.13;100.00;101283.19;5050773;28;20033;-47
2022/10/26 11:12:25;;;;;;;6.30;2.45;;;;;;;18.66;100.00;101326.31;5050929;28;20025;-50
2022/10/26 11:15:02;;;;;;;4.70;1.98;;;;;;;18.81;100.00;101336.09;5050943;28;20033;-53
2022/10/26 11:17:34;;;;;;;8.05;2.58;;;;;;;18.90;100.00;101343.56;5050835;28;20033;-48
2022/10/26 11:20:08;;;;;;;5.25;2.20;;;;;;;18.98;100.00;101349.31;5050534;28;20048;-49
2022/10/26 11:22:38;;;;;;;5.75;1.98;;;;;;;19.22;100.00;101363.00;5052045;28;20395;-50
2022/10/26 11:25:27;;;;;;;8.73;2.72;;;;;;;19.36;100.00;101367.50;5050962;28;20070;-49